Time;durP1;ratioP1;P1;durP2;ratioP2;P2;SDS_P1;SDS_P2;PMS_P1;PMS_P2;Temp;Humidity;BMP_temperature;BMP_pressure;BME280_temperature;BME280_humidity;BME280_pressure;Samples;Min_cycle;Max_cycle;Signal;HPM_P1;HPM_P2
2023/07/31 00:00:26;;;;;;;5.13;2.17;;;19.20;99.90;;;;;;4934403;29;20039;-66
2023/07/31 00:02:53;;;;;;;8.52;3.30;;;18.70;99.90;;;;;;4917412;29;20496;-66
2023/07/31 00:05:18;;;;;;;5.53;2.20;;;18.70;99.90;;;;;;4917051;29;20075;-66
2023/07/31 00:07:44;;;;;;;4.88;2.10;;;19.30;99.90;;;;;;4918109;29;20071;-67
2023/07/31 00:10:10;;;;;;;10.18;2.45;;;18.90;99.90;;;;;;4934663;29;20090;-66
2023/07/31 00:12:36;;;;;;;4.78;1.90;;;;;;;;;;4917308;29;20456;-66
2023/07/31 00:15:02;;;;;;;6.10;2.08;;;19.10;99.90;;;;;;4917135;29;20040;-67
2023/07/31 00:17:28;;;;;;;4.82;1.92;;;18.80;99.90;;;;;;4918092;29;20491;-67
2023/07/31 00:19:53;;;;;;;6.13;2.20;;;18.90;99.90;;;;;;4917263;29;20044;-66
2023/07/31 00:22:19;;;;;;;4.97;1.70;;;19.10;99.90;;;;;;4919530;29;20091;-66
2023/07/31 00:24:45;;;;;;;4.07;1.80;;;18.80;99.90;;;;;;4940937;29;20040;-66
2023/07/31 00:27:10;;;;;;;7.38;1.95;;;19.10;99.90;;;;;;4923751;29;20042;-66
2023/07/31 00:29:36;;;;;;;6.35;2.40;;;19.00;99.90;;;;;;4923990;29;20381;-67
2023/07/31 00:32:02;;;;;;;7.53;2.25;;;19.10;99.90;;;;;;4923669;29;20499;-66
2023/07/31 00:34:27;;;;;;;4.05;2.10;;;18.70;99.90;;;;;;4940629;29;20043;-66
2023/07/31 00:36:53;;;;;;;3.47;1.92;;;18.70;99.90;;;;;;4941118;29;20388;-66
2023/07/31 00:39:19;;;;;;;4.80;2.03;;;19.00;99.90;;;;;;4940852;29;20503;-66
2023/07/31 00:41:44;;;;;;;5.63;2.28;;;18.50;99.90;;;;;;4939261;29;20047;-67
2023/07/31 00:44:10;;;;;;;6.15;2.53;;;19.00;99.90;;;;;;4940740;29;20048;-66
2023/07/31 00:46:36;;;;;;;8.82;3.42;;;19.20;99.90;;;;;;4923476;29;20496;-66
2023/07/31 00:49:02;;;;;;;6.50;2.50;;;18.90;99.90;;;;;;4923374;29;20039;-67
2023/07/31 00:51:28;;;;;;;3.85;1.88;;;19.10;99.90;;;;;;4939140;29;20122;-67
2023/07/31 00:53:56;;;;;;;5.72;2.03;;;18.80;99.90;;;;;;4940692;29;20468;-67
2023/07/31 00:56:23;;;;;;;5.72;2.20;;;18.80;99.90;;;;;;4939309;29;20074;-67
2023/07/31 00:58:49;;;;;;;3.63;1.80;;;19.20;99.90;;;;;;4923396;29;20059;-67
2023/07/31 01:01:15;;;;;;;3.58;1.80;;;18.70;99.90;;;;;;4940186;29;20074;-67
2023/07/31 01:03:40;;;;;;;4.00;2.08;;;19.20;99.90;;;;;;4923171;29;20040;-66
2023/07/31 01:06:23;;;;;;;5.60;1.50;;;18.60;99.90;;;;;;4940412;29;20106;-67
2023/07/31 01:09:16;;;;;;;2.35;1.60;;;18.80;99.90;;;;;;4924068;29;20051;-68
2023/07/31 01:11:55;;;;;;;5.13;1.90;;;18.90;99.90;;;;;;4924681;29;20044;-67
2023/07/31 01:14:20;;;;;;;4.43;1.80;;;18.60;99.90;;;;;;4924313;29;20054;-68
2023/07/31 01:16:46;;;;;;;2.42;1.45;;;18.80;99.90;;;;;;4939269;29;20122;-67
2023/07/31 01:19:15;;;;;;;4.15;1.73;;;18.70;99.90;;;;;;4940338;29;20040;-67
2023/07/31 01:22:18;;;;;;;3.78;1.42;;;18.60;99.90;;;;;;4939976;29;20073;-67
2023/07/31 01:25:04;;;;;;;2.40;1.50;;;18.80;99.90;;;;;;4923041;29;20047;-67
2023/07/31 01:27:34;;;;;;;2.28;1.30;;;19.00;99.90;;;;;;4907551;29;20403;-67
2023/07/31 01:30:10;;;;;;;3.25;2.03;;;18.70;99.90;;;;;;4939985;29;20411;-67
2023/07/31 01:32:39;;;;;;;3.10;1.33;;;19.00;99.90;;;;;;4940374;29;20122;-67
2023/07/31 01:35:05;;;;;;;2.75;1.55;;;18.60;99.90;;;;;;4919814;29;20423;-67
2023/07/31 01:37:31;;;;;;;4.82;1.52;;;18.80;99.90;;;;;;4936860;29;20072;-67
2023/07/31 01:39:57;;;;;;;6.18;1.70;;;;;;;;;;4918237;29;20064;-67
2023/07/31 01:42:22;;;;;;;3.95;1.45;;;18.70;99.90;;;;;;4919324;29;20040;-67
2023/07/31 01:44:48;;;;;;;4.22;1.70;;;19.00;99.90;;;;;;4936513;29;20050;-67
2023/07/31 01:47:13;;;;;;;4.20;1.33;;;19.00;99.90;;;;;;4919946;29;20039;-67
2023/07/31 01:49:39;;;;;;;4.03;1.30;;;18.60;99.90;;;;;;4919655;29;20040;-67
2023/07/31 01:52:05;;;;;;;5.45;3.20;;;19.20;99.90;;;;;;4936834;29;20471;-67
2023/07/31 01:54:31;;;;;;;3.03;1.63;;;18.50;99.90;;;;;;4936436;29;20519;-67
2023/07/31 01:56:56;;;;;;;2.85;1.55;;;19.00;99.90;;;;;;4936913;29;20086;-67
2023/07/31 01:59:22;;;;;;;3.03;1.80;;;;;;;;;;4936817;29;20051;-67
2023/07/31 02:01:48;;;;;;;2.13;1.52;;;18.50;99.90;;;;;;4934969;29;20040;-67
2023/07/31 02:04:14;;;;;;;2.70;1.17;;;;;;;;;;4919206;29;20467;-68
2023/07/31 02:06:40;;;;;;;3.83;1.50;;;18.90;99.90;;;;;;4936972;29;20043;-68
2023/07/31 02:09:05;;;;;;;2.92;1.33;;;18.70;99.90;;;;;;4936500;29;20460;-67
2023/07/31 02:11:31;;;;;;;3.90;1.60;;;18.90;99.90;;;;;;4919396;29;20048;-67
2023/07/31 02:13:56;;;;;;;5.13;1.60;;;18.60;99.90;;;;;;4919852;29;20475;-68
2023/07/31 02:16:22;;;;;;;5.32;1.63;;;18.60;99.90;;;;;;4919166;29;20074;-67
2023/07/31 02:18:48;;;;;;;3.67;1.67;;;18.80;99.90;;;;;;4919217;29;20048;-67
2023/07/31 02:21:13;;;;;;;4.05;1.50;;;18.60;99.90;;;;;;4919092;29;20385;-67
2023/07/31 02:23:39;;;;;;;6.38;1.70;;;18.50;99.90;;;;;;4919345;29;20392;-67
2023/07/31 02:26:04;;;;;;;7.10;2.13;;;18.60;99.90;;;;;;4919457;29;20443;-67
2023/07/31 02:28:30;;;;;;;3.72;1.40;;;;;;;;;;4936179;29;20134;-67
2023/07/31 02:30:56;;;;;;;6.75;2.78;;;19.00;99.90;;;;;;4935949;29;20039;-67
2023/07/31 02:33:21;;;;;;;7.50;2.10;;;18.80;99.90;;;;;;4934782;29;20418;-67
2023/07/31 02:35:47;;;;;;;4.53;1.58;;;18.80;99.90;;;;;;4918830;29;20491;-68
2023/07/31 02:38:13;;;;;;;5.55;1.90;;;18.40;99.90;;;;;;4919099;29;20048;-66
2023/07/31 02:40:41;;;;;;;2.60;1.60;;;18.40;99.90;;;;;;4935879;29;20130;-67
2023/07/31 02:43:07;;;;;;;4.18;1.58;;;18.60;99.90;;;;;;4919197;29;20456;-67
2023/07/31 02:45:32;;;;;;;5.95;1.73;;;18.80;99.90;;;;;;4934750;29;20040;-67
2023/07/31 02:47:58;;;;;;;3.38;1.60;;;18.30;99.90;;;;;;4935708;29;20062;-68
2023/07/31 02:50:24;;;;;;;5.72;1.90;;;18.90;99.90;;;;;;4935988;29;20051;-67
2023/07/31 02:52:49;;;;;;;3.40;1.48;;;18.60;99.90;;;;;;4937417;29;20648;-67
2023/07/31 02:55:15;;;;;;;4.10;1.48;;;18.50;99.90;;;;;;4918822;29;20094;-68
2023/07/31 02:57:40;;;;;;;6.22;1.85;;;18.30;99.90;;;;;;4935784;29;20407;-68
2023/07/31 03:00:06;;;;;;;4.45;1.90;;;18.30;99.90;;;;;;4918623;29;20035;-68
2023/07/31 03:02:32;;;;;;;4.05;2.50;;;18.70;99.90;;;;;;4934341;29;20054;-68
2023/07/31 03:04:58;;;;;;;2.83;1.30;;;18.60;99.90;;;;;;4935585;29;20035;-68
2023/07/31 03:07:23;;;;;;;4.57;1.48;;;18.80;99.90;;;;;;4935641;29;20039;-68
2023/07/31 03:09:49;;;;;;;6.28;2.33;;;18.50;99.90;;;;;;4935617;29;20384;-68
2023/07/31 03:12:15;;;;;;;4.53;1.63;;;;;;;;;;4918223;29;20051;-68
2023/07/31 03:14:41;;;;;;;6.35;1.80;;;18.20;99.90;;;;;;4918273;29;20043;-68
2023/07/31 03:17:07;;;;;;;5.57;1.60;;;18.30;99.90;;;;;;4934879;29;20044;-68
2023/07/31 03:19:33;;;;;;;2.97;1.00;;;;;;;;;;4918239;29;20549;-68
2023/07/31 03:21:59;;;;;;;3.05;1.50;;;18.30;99.90;;;;;;4935265;29;20044;-68
2023/07/31 03:24:26;;;;;;;2.00;1.15;;;18.40;99.90;;;;;;4935328;29;20087;-68
2023/07/31 03:26:51;;;;;;;1.05;0.80;;;18.60;99.90;;;;;;4918477;29;20130;-68
2023/07/31 03:29:17;;;;;;;1.02;0.68;;;18.20;99.90;;;;;;4918157;29;20135;-68
2023/07/31 03:31:42;;;;;;;1.77;0.90;;;18.20;99.90;;;;;;4934789;29;20830;-68
2023/07/31 03:34:08;;;;;;;0.73;0.70;;;18.50;99.90;;;;;;4918083;29;20040;-68
2023/07/31 03:36:34;;;;;;;2.97;1.00;;;18.70;99.90;;;;;;4935023;29;20052;-67
2023/07/31 03:38:59;;;;;;;4.18;1.02;;;18.60;99.90;;;;;;4935150;29;20074;-67
2023/07/31 03:41:25;;;;;;;2.35;1.10;;;18.30;99.90;;;;;;4917651;29;20415;-67
2023/07/31 03:43:55;;;;;;;1.35;0.70;;;18.30;99.90;;;;;;4934850;29;20047;-67
2023/07/31 03:46:22;;;;;;;1.65;0.98;;;18.50;99.90;;;;;;4935135;29;20071;-67
2023/07/31 03:48:48;;;;;;;1.48;0.80;;;18.90;99.90;;;;;;4933670;29;20530;-67
2023/07/31 03:51:14;;;;;;;3.25;0.85;;;18.50;99.90;;;;;;4934768;29;20047;-67
2023/07/31 03:53:39;;;;;;;1.55;1.10;;;18.30;99.90;;;;;;4917821;29;20050;-67
2023/07/31 03:56:05;;;;;;;2.20;1.33;;;18.30;99.90;;;;;;4934701;29;20483;-67
2023/07/31 03:58:30;;;;;;;3.10;0.98;;;18.20;99.90;;;;;;4917364;29;20119;-67
2023/07/31 04:00:56;;;;;;;1.58;1.10;;;18.20;99.90;;;;;;4917462;29;20039;-67
2023/07/31 04:03:22;;;;;;;1.95;0.98;;;18.60;99.90;;;;;;4934912;29;20043;-67
2023/07/31 04:05:47;;;;;;;2.45;1.40;;;18.00;99.90;;;;;;4917709;29;20530;-67
2023/07/31 04:08:13;;;;;;;1.20;0.90;;;18.80;99.90;;;;;;4918203;29;20043;-67
2023/07/31 04:10:38;;;;;;;2.15;1.05;;;18.20;99.90;;;;;;4917439;29;20130;-66
2023/07/31 04:13:04;;;;;;;2.00;0.90;;;18.50;99.90;;;;;;4917505;29;20094;-67
2023/07/31 04:15:29;;;;;;;1.20;0.80;;;18.60;99.90;;;;;;4917466;29;20048;-67
2023/07/31 04:17:55;;;;;;;2.70;1.00;;;18.40;99.90;;;;;;4934572;29;20043;-67
2023/07/31 04:20:21;;;;;;;2.25;1.10;;;17.90;99.90;;;;;;4932788;29;20079;-66
2023/07/31 04:22:46;;;;;;;1.13;1.02;;;18.70;99.90;;;;;;4933371;29;20455;-67
2023/07/31 04:25:12;;;;;;;3.45;1.30;;;18.70;99.90;;;;;;4934658;29;20118;-66
2023/07/31 04:27:38;;;;;;;1.15;0.93;;;18.30;99.90;;;;;;4917693;29;20065;-67
2023/07/31 04:30:05;;;;;;;1.40;1.02;;;18.30;99.90;;;;;;4917636;29;20048;-67
2023/07/31 04:32:30;;;;;;;2.67;1.05;;;18.10;99.90;;;;;;4934058;29;20126;-67
2023/07/31 04:34:56;;;;;;;2.13;1.10;;;18.30;99.90;;;;;;4934428;29;20131;-67
2023/07/31 04:37:21;;;;;;;2.50;1.58;;;18.30;99.90;;;;;;4917302;29;20419;-67
2023/07/31 04:39:47;;;;;;;1.25;1.00;;;18.20;99.90;;;;;;4934337;29;20040;-67
2023/07/31 04:42:13;;;;;;;2.60;1.10;;;18.60;99.90;;;;;;4932711;29;20047;-67
2023/07/31 04:44:38;;;;;;;2.50;1.40;;;18.20;99.90;;;;;;4934151;29;20492;-66
2023/07/31 04:47:04;;;;;;;1.63;1.35;;;18.20;99.90;;;;;;4917255;29;20040;-67
2023/07/31 04:49:29;;;;;;;2.20;1.35;;;18.80;99.90;;;;;;4933889;29;20032;-67
2023/07/31 04:51:55;;;;;;;4.97;1.83;;;18.30;99.90;;;;;;4916973;29;20051;-67
2023/07/31 04:54:21;;;;;;;4.70;2.70;;;18.70;99.90;;;;;;4913412;29;20054;-67
2023/07/31 04:56:47;;;;;;;4.88;3.38;;;18.60;99.90;;;;;;4906771;29;20047;-67
2023/07/31 04:59:13;;;;;;;5.22;1.98;;;18.10;99.90;;;;;;4907910;29;20051;-67
2023/07/31 05:01:38;;;;;;;7.40;2.33;;;18.70;99.90;;;;;;4923489;29;20040;-67
2023/07/31 05:04:04;;;;;;;5.95;2.28;;;18.40;99.90;;;;;;4906604;29;20520;-67
2023/07/31 05:06:29;;;;;;;3.70;2.20;;;18.50;99.90;;;;;;4908103;29;20060;-66
2023/07/31 05:08:55;;;;;;;6.15;1.85;;;18.60;99.90;;;;;;4906808;29;20032;-67
2023/07/31 05:11:20;;;;;;;3.75;2.03;;;18.40;99.90;;;;;;4910829;29;20039;-67
2023/07/31 05:13:46;;;;;;;4.20;2.10;;;18.40;99.90;;;;;;4910962;29;20092;-67
2023/07/31 05:16:12;;;;;;;4.60;2.08;;;18.50;99.90;;;;;;4925315;29;20047;-67
2023/07/31 05:18:37;;;;;;;3.75;2.20;;;18.90;99.90;;;;;;4911635;29;20082;-67
2023/07/31 05:21:03;;;;;;;5.43;2.50;;;18.30;99.90;;;;;;4910340;29;20044;-67
2023/07/31 05:23:29;;;;;;;4.30;2.00;;;18.30;99.90;;;;;;4912334;29;20127;-68
2023/07/31 05:25:54;;;;;;;7.05;2.30;;;18.50;99.90;;;;;;4931725;29;20043;-67
2023/07/31 05:28:21;;;;;;;5.55;3.40;;;18.40;99.90;;;;;;4920192;29;20032;-67
2023/07/31 05:30:47;;;;;;;4.32;2.03;;;;;;;;;;4937105;29;20062;-67
2023/07/31 05:33:13;;;;;;;8.70;2.92;;;18.80;99.90;;;;;;4920280;29;20044;-67
2023/07/31 05:35:39;;;;;;;9.35;2.92;;;18.30;99.90;;;;;;4920133;29;20051;-67
2023/07/31 05:38:04;;;;;;;10.30;3.65;;;18.90;99.90;;;;;;4920159;29;20432;-67
2023/07/31 05:40:33;;;;;;;13.48;3.30;;;19.20;99.90;;;;;;4936255;29;20071;-67
2023/07/31 05:42:58;;;;;;;8.23;3.20;;;18.90;99.90;;;;;;4918647;29;20047;-67
2023/07/31 05:45:25;;;;;;;10.05;4.13;;;18.50;99.90;;;;;;4921043;29;20043;-67
2023/07/31 05:47:51;;;;;;;11.90;4.68;;;19.20;99.90;;;;;;4938289;29;20036;-67
2023/07/31 05:50:16;;;;;;;17.40;6.22;;;18.70;99.90;;;;;;4937056;29;20059;-67
2023/07/31 05:52:43;;;;;;;22.08;5.20;;;;;;;;;;4936843;29;20419;-67
2023/07/31 05:55:08;;;;;;;20.90;5.80;;;18.90;99.90;;;;;;4936796;29;20044;-67
2023/07/31 05:57:34;;;;;;;28.65;6.78;;;19.40;99.90;;;;;;4936882;29;20059;-67
2023/07/31 05:59:59;;;;;;;28.73;6.95;;;19.50;99.90;;;;;;4935728;29;20114;-67
2023/07/31 06:02:25;;;;;;;30.02;9.00;;;19.10;99.90;;;;;;4919445;29;20530;-67
2023/07/31 06:04:51;;;;;;;23.25;6.90;;;;;;;;;;4936439;29;20075;-67
2023/07/31 06:07:17;;;;;;;23.73;7.38;;;18.70;99.90;;;;;;4933908;29;20040;-67
2023/07/31 06:09:42;;;;;;;22.92;8.13;;;18.70;99.90;;;;;;4925768;29;20504;-68
2023/07/31 06:12:08;;;;;;;26.58;6.90;;;19.60;99.90;;;;;;4926914;29;20050;-67
2023/07/31 06:14:34;;;;;;;18.08;6.75;;;19.50;99.90;;;;;;4927013;29;20059;-68
2023/07/31 06:16:59;;;;;;;24.17;6.88;;;19.20;99.90;;;;;;4925674;29;20485;-67
2023/07/31 06:19:26;;;;;;;25.60;7.25;;;;;;;;;;4910468;29;20539;-67
2023/07/31 06:21:51;;;;;;;23.20;7.88;;;19.20;99.90;;;;;;4893445;29;20425;-67
2023/07/31 06:24:20;;;;;;;23.98;6.85;;;;;;;;;;4925668;29;20032;-67
2023/07/31 06:26:45;;;;;;;22.25;6.97;;;19.20;99.90;;;;;;4927047;29;20036;-68
2023/07/31 06:29:11;;;;;;;25.50;6.88;;;19.60;99.90;;;;;;4910419;29;20457;-67
2023/07/31 06:31:37;;;;;;;23.42;6.63;;;19.50;99.90;;;;;;4910758;29;20044;-67
2023/07/31 06:34:02;;;;;;;21.00;6.57;;;19.90;99.90;;;;;;4893425;29;20040;-67
2023/07/31 06:36:28;;;;;;;23.08;6.30;;;19.20;99.90;;;;;;4910023;29;20044;-67
2023/07/31 06:38:54;;;;;;;18.67;6.75;;;19.40;99.90;;;;;;4919092;29;20084;-67
2023/07/31 06:41:19;;;;;;;22.65;6.38;;;19.90;99.90;;;;;;4918645;29;20734;-67
2023/07/31 06:43:45;;;;;;;14.57;5.72;;;19.90;99.90;;;;;;4926058;29;20032;-67
2023/07/31 06:46:10;;;;;;;14.25;5.47;;;19.70;99.90;;;;;;4907990;29;20565;-67
2023/07/31 06:48:37;;;;;;;24.20;6.72;;;;;;;;;;4917515;29;20119;-67
2023/07/31 06:51:03;;;;;;;19.25;6.18;;;19.20;99.90;;;;;;4935288;29;20067;-67
2023/07/31 06:53:28;;;;;;;18.23;6.13;;;19.50;99.90;;;;;;4918682;29;20052;-67
2023/07/31 06:55:54;;;;;;;21.08;5.57;;;19.90;99.90;;;;;;4935582;29;20036;-67
2023/07/31 06:58:20;;;;;;;18.63;5.22;;;19.50;99.90;;;;;;4934579;29;20051;-67
2023/07/31 07:00:45;;;;;;;13.18;4.93;;;19.10;99.90;;;;;;4929456;29;20046;-67
2023/07/31 07:03:11;;;;;;;15.02;4.63;;;19.90;99.90;;;;;;4924634;29;20040;-68
2023/07/31 07:05:37;;;;;;;13.98;3.90;;;19.40;99.90;;;;;;4914751;29;20047;-67
2023/07/31 07:08:02;;;;;;;11.98;3.80;;;19.30;99.90;;;;;;4918785;29;20148;-67
2023/07/31 07:10:28;;;;;;;11.73;3.25;;;19.30;99.90;;;;;;4918254;29;20050;-67
2023/07/31 07:12:55;;;;;;;11.65;4.03;;;20.00;99.90;;;;;;4935500;29;20468;-67
2023/07/31 07:15:20;;;;;;;8.07;3.40;;;19.90;99.90;;;;;;4934938;29;20040;-67
2023/07/31 07:17:46;;;;;;;10.63;4.63;;;19.80;99.90;;;;;;4935148;29;20152;-67
2023/07/31 07:20:12;;;;;;;10.48;3.70;;;19.60;99.90;;;;;;4935168;29;20122;-67
2023/07/31 07:22:38;;;;;;;6.30;3.13;;;20.00;99.90;;;;;;4915470;29;20115;-67
2023/07/31 07:25:04;;;;;;;10.57;3.47;;;19.30;99.90;;;;;;4935819;29;20075;-67
2023/07/31 07:27:30;;;;;;;7.78;3.75;;;19.30;99.90;;;;;;4932429;29;20044;-68
2023/07/31 07:29:55;;;;;;;6.50;2.70;;;19.50;99.90;;;;;;4916441;29;20036;-67
2023/07/31 07:32:21;;;;;;;2.35;1.95;;;19.40;99.90;;;;;;4906524;29;20177;-67
2023/07/31 07:34:48;;;;;;;3.67;2.10;;;20.20;99.90;;;;;;4906764;29;20051;-68
2023/07/31 07:37:13;;;;;;;3.55;2.03;;;19.50;99.90;;;;;;4908886;29;20592;-67
2023/07/31 07:39:39;;;;;;;2.97;1.90;;;20.30;99.90;;;;;;4929637;29;20048;-66
2023/07/31 07:42:05;;;;;;;1.85;1.60;;;19.60;99.90;;;;;;4906926;29;20043;-68
2023/07/31 07:44:31;;;;;;;2.20;0.90;;;20.00;99.90;;;;;;4904961;29;20036;-68
2023/07/31 07:46:56;;;;;;;1.80;0.70;;;19.80;99.90;;;;;;4895433;29;20560;-68
2023/07/31 07:49:22;;;;;;;2.22;0.82;;;20.00;99.90;;;;;;4929193;29;20046;-67
2023/07/31 07:51:49;;;;;;;1.00;0.63;;;20.00;99.90;;;;;;4933587;29;20080;-67
2023/07/31 07:54:16;;;;;;;2.50;1.15;;;;;;;;;;4933638;29;20106;-68
2023/07/31 07:56:42;;;;;;;2.55;0.98;;;19.10;99.90;;;;;;4915345;29;20050;-67
2023/07/31 07:59:08;;;;;;;0.57;0.50;;;19.80;99.90;;;;;;4934739;29;20036;-67
2023/07/31 08:01:34;;;;;;;0.88;0.52;;;20.00;99.90;;;;;;4934330;29;20055;-67
2023/07/31 08:03:59;;;;;;;1.83;0.65;;;19.60;99.90;;;;;;4917710;29;20078;-67
2023/07/31 08:06:25;;;;;;;1.08;0.52;;;19.20;99.90;;;;;;4933412;29;20039;-67
2023/07/31 08:08:51;;;;;;;1.30;0.60;;;19.50;99.90;;;;;;4934771;29;20040;-67
2023/07/31 08:11:16;;;;;;;0.50;0.50;;;19.30;99.90;;;;;;4934651;29;20086;-67
2023/07/31 08:13:42;;;;;;;0.65;0.60;;;20.10;99.90;;;;;;4917911;29;20090;-67
2023/07/31 08:16:08;;;;;;;0.63;0.40;;;19.30;99.90;;;;;;4918156;29;20334;-67
2023/07/31 08:18:34;;;;;;;1.25;0.60;;;19.30;99.90;;;;;;4917733;29;20051;-68
2023/07/31 08:21:04;;;;;;;0.85;0.60;;;20.20;99.90;;;;;;4917183;29;20519;-67
2023/07/31 08:23:30;;;;;;;1.15;1.05;;;19.40;99.90;;;;;;4934785;29;20496;-67
2023/07/31 08:25:55;;;;;;;2.65;0.80;;;20.00;99.90;;;;;;4917906;29;20042;-68
2023/07/31 08:28:21;;;;;;;0.55;0.47;;;20.20;99.90;;;;;;4918317;29;20044;-67
2023/07/31 08:30:47;;;;;;;2.40;0.50;;;;;;;;;;4934901;29;20043;-67
2023/07/31 08:33:13;;;;;;;0.50;0.40;;;19.60;99.90;;;;;;4934669;29;20075;-67
2023/07/31 08:35:38;;;;;;;0.85;0.40;;;19.70;99.90;;;;;;4934614;29;20127;-67
2023/07/31 08:38:04;;;;;;;0.30;0.30;;;20.40;99.90;;;;;;4917729;29;20052;-68
2023/07/31 08:40:30;;;;;;;0.77;0.40;;;20.30;99.90;;;;;;4934127;29;20173;-67
2023/07/31 08:42:56;;;;;;;0.85;0.35;;;19.90;99.90;;;;;;4918154;29;20032;-68
2023/07/31 08:45:22;;;;;;;1.95;0.60;;;20.30;99.90;;;;;;4921256;29;20039;-68
2023/07/31 08:47:52;;;;;;;2.95;0.50;;;19.60;99.90;;;;;;4938390;29;20094;-68
2023/07/31 08:50:20;;;;;;;0.40;0.40;;;19.50;99.90;;;;;;4920857;29;20045;-67
2023/07/31 08:52:47;;;;;;;0.40;0.40;;;20.20;99.90;;;;;;4938670;29;20077;-67
2023/07/31 08:55:13;;;;;;;1.75;0.40;;;19.60;99.90;;;;;;4921441;29;20515;-67
2023/07/31 08:57:39;;;;;;;0.88;0.68;;;19.80;99.90;;;;;;4938321;29;20163;-68
2023/07/31 09:00:06;;;;;;;1.83;0.80;;;20.00;99.90;;;;;;4921113;29;20075;-68
2023/07/31 09:02:47;;;;;;;0.73;0.70;;;19.90;99.90;;;;;;4921124;29;20337;-68
2023/07/31 09:05:14;;;;;;;1.92;0.40;;;20.10;99.90;;;;;;4920903;29;20047;-67
2023/07/31 09:07:42;;;;;;;1.08;0.70;;;19.50;99.90;;;;;;4920927;29;20040;-67
2023/07/31 09:10:08;;;;;;;1.23;0.52;;;19.80;99.90;;;;;;4920759;29;20114;-67
2023/07/31 09:12:34;;;;;;;1.40;0.82;;;19.60;99.90;;;;;;4920648;29;20131;-67
2023/07/31 09:15:00;;;;;;;0.88;0.70;;;20.50;99.90;;;;;;4937714;29;20044;-67
2023/07/31 09:17:31;;;;;;;1.45;0.90;;;20.40;99.90;;;;;;4936334;29;20048;-67
2023/07/31 09:19:57;;;;;;;3.63;1.20;;;19.60;99.90;;;;;;4920950;29;20044;-67
2023/07/31 09:22:36;;;;;;;1.85;0.90;;;20.30;99.90;;;;;;4921050;29;20044;-67
2023/07/31 09:25:22;;;;;;;2.95;0.50;;;20.00;99.90;;;;;;4921447;29;20415;-68
2023/07/31 09:27:57;;;;;;;0.45;0.30;;;20.40;99.90;;;;;;4937508;29;20622;-67
2023/07/31 09:30:23;;;;;;;2.10;0.40;;;21.00;99.90;;;;;;4920174;29;20152;-66
2023/07/31 09:32:50;;;;;;;2.00;0.40;;;20.50;99.90;;;;;;4920633;29;20043;-67
2023/07/31 09:35:32;;;;;;;0.98;0.52;;;20.20;99.90;;;;;;4920413;29;20526;-67
2023/07/31 09:38:19;;;;;;;1.45;0.55;;;21.50;99.90;;;;;;4937533;29;20281;-67
2023/07/31 09:40:49;;;;;;;1.67;0.60;;;20.30;99.90;;;;;;4919406;29;20056;-67
2023/07/31 09:43:21;;;;;;;1.85;0.50;;;20.10;99.90;;;;;;4920314;29;20167;-67
2023/07/31 09:45:48;;;;;;;1.48;0.50;;;21.20;99.90;;;;;;4920096;29;20031;-67
2023/07/31 09:48:18;;;;;;;0.52;0.40;;;21.20;99.90;;;;;;4937272;29;20067;-67
2023/07/31 09:50:49;;;;;;;0.90;0.32;;;21.20;99.90;;;;;;4903810;29;20099;-67
2023/07/31 09:53:16;;;;;;;1.75;0.45;;;21.00;99.90;;;;;;4937345;29;20043;-68
2023/07/31 09:55:42;;;;;;;2.85;0.52;;;21.20;99.90;;;;;;4936157;29;20040;-67
2023/07/31 09:58:12;;;;;;;0.50;0.50;;;21.20;99.90;;;;;;4920049;29;20063;-67
2023/07/31 10:00:39;;;;;;;0.73;0.50;;;20.20;99.90;;;;;;4936440;29;20496;-68
2023/07/31 10:03:08;;;;;;;0.52;0.40;;;21.20;99.90;;;;;;4919671;29;20040;-67
2023/07/31 10:05:43;;;;;;;1.80;0.50;;;21.40;99.90;;;;;;4919461;29;20048;-67
2023/07/31 10:08:12;;;;;;;1.55;0.47;;;21.40;99.90;;;;;;4919637;29;20039;-67
2023/07/31 10:10:42;;;;;;;1.10;0.50;;;20.20;99.90;;;;;;4919358;29;20055;-67
2023/07/31 10:13:08;;;;;;;0.93;0.50;;;20.80;99.90;;;;;;4936739;29;20047;-67
2023/07/31 10:15:35;;;;;;;0.68;0.50;;;22.40;99.90;;;;;;4919338;29;20079;-67
2023/07/31 10:18:02;;;;;;;2.05;0.50;;;21.30;99.90;;;;;;4919642;29;20451;-67
2023/07/31 10:20:28;;;;;;;1.35;0.40;;;21.40;99.90;;;;;;4919352;29;20435;-67
2023/07/31 10:22:59;;;;;;;0.52;0.30;;;20.40;99.90;;;;;;4919359;29;20095;-67
2023/07/31 10:25:26;;;;;;;0.98;0.40;;;20.50;99.90;;;;;;4935262;29;20444;-67
2023/07/31 10:27:53;;;;;;;0.60;0.40;;;21.40;99.90;;;;;;4936798;29;20534;-67
2023/07/31 10:30:23;;;;;;;2.20;0.50;;;21.50;99.90;;;;;;4936119;29;20455;-67
2023/07/31 10:32:50;;;;;;;1.05;0.40;;;20.60;99.90;;;;;;4936454;29;20043;-68
2023/07/31 10:35:17;;;;;;;0.65;0.60;;;20.90;99.90;;;;;;4919041;29;20054;-67
2023/07/31 10:37:43;;;;;;;1.67;0.70;;;22.20;99.90;;;;;;4936250;29;20058;-67
2023/07/31 10:40:17;;;;;;;3.42;1.15;;;21.90;99.90;;;;;;4936063;29;20039;-67
2023/07/31 10:42:47;;;;;;;3.03;1.20;;;21.00;99.90;;;;;;4919132;29;20385;-67
2023/07/31 10:45:13;;;;;;;3.60;0.98;;;21.50;99.90;;;;;;4919605;29;20079;-67
2023/07/31 10:47:42;;;;;;;0.90;0.60;;;20.80;99.90;;;;;;4919186;29;20047;-67
2023/07/31 10:50:19;;;;;;;1.92;0.80;;;21.40;99.90;;;;;;4936004;29;20381;-67
2023/07/31 10:52:48;;;;;;;1.23;1.10;;;20.50;99.90;;;;;;4918742;29;20131;-67
2023/07/31 10:55:19;;;;;;;1.70;0.80;;;21.40;99.90;;;;;;4935712;29;20043;-67
2023/07/31 10:57:47;;;;;;;2.00;0.98;;;21.90;99.90;;;;;;4936403;29;20044;-67
2023/07/31 11:00:29;;;;;;;1.05;0.80;;;20.90;99.90;;;;;;4918809;29;20500;-66
2023/07/31 11:02:58;;;;;;;1.10;0.80;;;21.80;99.90;;;;;;4918316;29;20043;-70
2023/07/31 11:05:41;;;;;;;2.35;0.70;;;21.10;99.90;;;;;;4919372;29;20424;-67
2023/07/31 11:08:32;;;;;;;1.77;0.80;;;21.80;99.90;;;;;;4931186;29;20035;-67
2023/07/31 11:11:01;;;;;;;2.10;0.90;;;21.70;99.90;;;;;;4908633;29;20048;-68
2023/07/31 11:13:27;;;;;;;0.95;0.85;;;22.00;99.90;;;;;;4933118;29;20049;-67
2023/07/31 11:15:53;;;;;;;2.72;1.15;;;21.00;99.90;;;;;;4934692;29;20496;-67
2023/07/31 11:18:19;;;;;;;6.03;1.55;;;22.20;99.90;;;;;;4931355;29;20090;-67
2023/07/31 11:20:45;;;;;;;7.47;1.58;;;21.80;99.90;;;;;;4909112;29;20058;-67
2023/07/31 11:23:11;;;;;;;3.50;1.20;;;21.90;99.90;;;;;;4906182;29;20048;-67
2023/07/31 11:25:41;;;;;;;3.22;1.20;;;22.10;99.90;;;;;;4923445;29;20491;-67
2023/07/31 11:28:09;;;;;;;4.00;1.30;;;21.00;99.90;;;;;;4913036;29;20043;-66
2023/07/31 11:30:35;;;;;;;3.38;1.17;;;21.90;99.90;;;;;;4927821;29;20051;-67
2023/07/31 11:33:03;;;;;;;1.67;1.30;;;21.90;99.90;;;;;;4906604;29;20040;-66
2023/07/31 11:35:30;;;;;;;3.60;1.60;;;21.40;99.90;;;;;;4910054;29;20127;-67
2023/07/31 11:37:56;;;;;;;7.25;2.20;;;20.90;99.90;;;;;;4905888;29;20500;-67
2023/07/31 11:40:22;;;;;;;4.13;1.70;;;;;;;;;;4927650;29;20046;-66
2023/07/31 11:42:48;;;;;;;9.40;2.00;;;21.80;99.90;;;;;;4916797;29;20039;-67
2023/07/31 11:45:13;;;;;;;3.15;1.40;;;21.60;99.90;;;;;;4913598;29;20032;-67
2023/07/31 11:47:39;;;;;;;3.17;1.50;;;21.10;99.90;;;;;;4901258;29;20077;-67
2023/07/31 11:50:09;;;;;;;3.20;1.70;;;21.30;99.90;;;;;;4903354;29;20410;-68
2023/07/31 11:52:44;;;;;;;5.07;2.05;;;21.90;99.90;;;;;;4933440;29;20079;-68
2023/07/31 11:55:10;;;;;;;3.92;2.00;;;21.30;99.90;;;;;;4917780;29;20051;-68
2023/07/31 11:57:38;;;;;;;8.25;2.00;;;21.80;99.90;;;;;;4917903;29;20059;-68
2023/07/31 12:00:05;;;;;;;3.78;1.60;;;21.70;99.90;;;;;;4917528;29;20052;-68
2023/07/31 12:02:31;;;;;;;9.25;2.05;;;22.10;99.90;;;;;;4917319;29;20079;-68
2023/07/31 12:04:57;;;;;;;5.38;2.40;;;21.60;99.90;;;;;;4934568;29;20044;-68
2023/07/31 12:07:24;;;;;;;7.30;2.90;;;21.90;99.90;;;;;;4983872;23;20057;-75
2023/07/31 12:09:56;;;;;;;6.70;2.38;;;23.30;99.90;;;;;;4955827;28;20094;-75
2023/07/31 12:12:26;;;;;;;9.55;3.05;;;21.40;99.90;;;;;;4955768;28;20050;-75
2023/07/31 12:14:52;;;;;;;12.38;3.10;;;21.50;99.90;;;;;;4953242;28;20075;-75
2023/07/31 12:17:20;;;;;;;9.68;3.28;;;22.20;99.90;;;;;;4940637;29;20097;-75
2023/07/31 12:19:48;;;;;;;6.45;2.47;;;22.70;99.90;;;;;;4917925;29;20075;-75
2023/07/31 12:22:15;;;;;;;12.57;3.50;;;21.60;99.90;;;;;;4917732;29;20526;-75
2023/07/31 12:24:44;;;;;;;9.25;2.70;;;22.00;99.90;;;;;;4901902;29;20119;-75
2023/07/31 12:27:14;;;;;;;8.40;2.22;;;22.30;99.90;;;;;;4917508;29;20040;-75
2023/07/31 12:29:43;;;;;;;5.72;2.13;;;21.70;99.90;;;;;;4918024;29;20043;-75
2023/07/31 12:32:29;;;;;;;8.55;2.30;;;21.50;99.90;;;;;;4917327;29;20052;-75
2023/07/31 12:34:59;;;;;;;10.30;2.53;;;22.20;99.90;;;;;;4917530;29;20504;-75
2023/07/31 12:37:24;;;;;;;9.10;2.70;;;22.30;99.90;;;;;;4902113;29;20055;-75
2023/07/31 12:39:50;;;;;;;5.50;2.38;;;;;;;;;;4937272;29;20066;-75
2023/07/31 12:42:17;;;;;;;17.23;4.47;;;21.30;99.90;;;;;;4919370;29;20048;-76
2023/07/31 12:44:43;;;;;;;19.98;3.28;;;22.20;99.90;;;;;;4934745;29;20035;-75
2023/07/31 12:47:09;;;;;;;10.32;3.47;;;22.10;99.90;;;;;;4918101;29;20082;-75
2023/07/31 12:49:34;;;;;;;10.68;3.45;;;21.40;99.90;;;;;;4926677;29;20110;-75